createdAt,value
2018-07-06T00:01:44.907Z,20.46
2018-07-06T00:04:58.750Z,20.43
2018-07-06T00:08:12.243Z,20.39
2018-07-06T00:11:26.005Z,20.32
2018-07-06T00:14:39.891Z,20.35
2018-07-06T00:17:53.646Z,20.39
2018-07-06T00:21:08.147Z,20.41
2018-07-06T00:24:21.972Z,20.46
2018-07-06T00:27:35.733Z,20.46
2018-07-06T00:30:49.401Z,20.44
2018-07-06T00:34:03.127Z,20.43
2018-07-06T00:37:16.668Z,20.44
2018-07-06T00:40:30.274Z,20.36
2018-07-06T00:43:44.044Z,20.29
2018-07-06T00:46:57.785Z,20.20
2018-07-06T00:50:11.376Z,20.27
2018-07-06T00:53:25.138Z,20.38
2018-07-06T00:56:38.898Z,20.39
2018-07-06T00:59:52.443Z,20.35
2018-07-06T01:03:06.303Z,20.39
2018-07-06T01:06:19.916Z,20.30
2018-07-06T01:09:33.555Z,20.28
2018-07-06T01:12:52.932Z,20.32
2018-07-06T01:16:06.599Z,20.32
2018-07-06T01:19:20.307Z,20.31
2018-07-06T01:22:33.943Z,20.34
2018-07-06T01:25:47.633Z,20.38
2018-07-06T01:29:01.248Z,20.40
2018-07-06T01:32:15.002Z,20.42
2018-07-06T01:35:28.743Z,20.44
2018-07-06T01:38:42.574Z,20.42
2018-07-06T01:41:56.369Z,20.37
2018-07-06T01:45:10.062Z,20.37
2018-07-06T01:48:23.687Z,20.37
2018-07-06T01:51:37.356Z,20.30
2018-07-06T01:54:51.203Z,20.32
2018-07-06T01:58:04.831Z,20.31
2018-07-06T02:01:18.335Z,20.29
2018-07-06T02:04:32.000Z,20.30
2018-07-06T02:07:45.732Z,20.26
2018-07-06T02:10:59.285Z,20.16
2018-07-06T02:14:14.080Z,20.14
2018-07-06T02:17:27.712Z,20.11
2018-07-06T02:20:41.413Z,20.16
2018-07-06T02:23:55.145Z,20.14
2018-07-06T02:27:08.707Z,20.14
2018-07-06T02:30:22.130Z,20.15
2018-07-06T02:33:35.852Z,20.18
2018-07-06T02:36:50.213Z,20.14
2018-07-06T02:40:03.835Z,20.11
2018-07-06T02:43:17.485Z,20.10
2018-07-06T02:46:31.132Z,20.09
2018-07-06T02:49:44.867Z,20.12
2018-07-06T02:52:58.585Z,20.09
2018-07-06T02:56:12.183Z,20.10
2018-07-06T02:59:26.723Z,20.11
2018-07-06T03:02:40.403Z,20.08
2018-07-06T03:05:54.032Z,20.01
2018-07-06T03:09:07.526Z,20.02
2018-07-06T03:12:21.264Z,19.93
2018-07-06T03:15:34.960Z,19.95
2018-07-06T03:18:48.858Z,19.93
2018-07-06T03:22:02.562Z,19.95
2018-07-06T03:25:17.055Z,20.02
2018-07-06T03:28:30.698Z,19.94
2018-07-06T03:31:44.188Z,19.92
2018-07-06T03:34:57.736Z,19.90
2018-07-06T03:38:11.352Z,19.89
2018-07-06T03:41:25.140Z,19.95
2018-07-06T03:44:38.766Z,19.86
2018-07-06T03:47:52.268Z,19.85
2018-07-06T03:51:06.242Z,19.84
2018-07-06T03:54:20.875Z,19.80
2018-07-06T03:57:35.189Z,19.89
2018-07-06T04:00:48.837Z,19.81
2018-07-06T04:04:02.405Z,19.82
2018-07-06T04:07:15.995Z,19.84
2018-07-06T04:10:29.607Z,19.82
2018-07-06T04:13:44.435Z,19.76
2018-07-06T04:16:58.034Z,19.77
2018-07-06T04:20:11.876Z,19.67
2018-07-06T04:23:25.445Z,19.73
2018-07-06T04:26:39.119Z,19.74
2018-07-06T04:29:52.919Z,19.74
2018-07-06T04:33:06.607Z,19.82
2018-07-06T04:36:21.476Z,19.82
2018-07-06T04:39:35.237Z,19.81
2018-07-06T04:42:48.788Z,19.77
2018-07-06T04:46:02.392Z,19.83
2018-07-06T04:49:16.059Z,19.85
2018-07-06T04:52:29.670Z,19.90
2018-07-06T04:55:44.307Z,19.91
2018-07-06T04:58:58.075Z,19.89
2018-07-06T05:02:11.784Z,19.90
2018-07-06T05:05:25.400Z,19.99
2018-07-06T05:08:39.149Z,19.98
2018-07-06T05:11:52.904Z,20.04
2018-07-06T05:15:06.843Z,20.21
2018-07-06T05:18:20.671Z,20.26
2018-07-06T05:21:34.387Z,20.33
2018-07-06T05:24:48.002Z,20.47
2018-07-06T05:28:01.746Z,20.42
2018-07-06T05:31:15.543Z,20.45
2018-07-06T05:34:29.155Z,20.57
2018-07-06T05:37:42.683Z,20.65
2018-07-06T05:40:56.235Z,20.73
2018-07-06T05:44:09.977Z,20.77
2018-07-06T05:47:23.614Z,20.85
2018-07-06T05:50:37.244Z,20.91
2018-07-06T05:53:51.228Z,21.01
2018-07-06T05:57:05.880Z,21.08
2018-07-06T06:00:19.833Z,21.12
2018-07-06T06:03:33.560Z,21.22
2018-07-06T06:06:47.227Z,21.23
2018-07-06T06:09:49.307Z,21.21
2018-07-06T06:12:51.560Z,21.16
2018-07-06T06:15:54.071Z,21.18
2018-07-06T06:18:56.597Z,21.25
2018-07-06T06:21:58.659Z,21.19
2018-07-06T06:25:00.805Z,21.31
2018-07-06T06:28:02.929Z,21.29
2018-07-06T06:31:04.955Z,21.17
2018-07-06T06:34:07.120Z,21.19
2018-07-06T06:37:09.211Z,21.21
2018-07-06T06:40:11.426Z,21.38
2018-07-06T06:43:13.489Z,21.49
2018-07-06T06:46:16.916Z,21.66
2018-07-06T06:49:19.138Z,21.77
2018-07-06T06:52:21.372Z,21.94
2018-07-06T06:55:23.425Z,22.08
2018-07-06T06:58:26.083Z,22.14
2018-07-06T07:01:28.354Z,22.22
2018-07-06T07:04:30.482Z,22.20
2018-07-06T07:07:32.847Z,22.17
2018-07-06T07:10:34.980Z,22.15
2018-07-06T07:13:37.138Z,22.07
2018-07-06T07:16:40.644Z,22.16
2018-07-06T07:19:43.170Z,22.25
2018-07-06T07:22:45.400Z,22.25
2018-07-06T07:25:47.552Z,22.24
2018-07-06T07:28:49.645Z,22.40
2018-07-06T07:31:51.763Z,22.56
2018-07-06T07:34:53.794Z,22.74
2018-07-06T07:37:55.788Z,22.65
2018-07-06T07:40:57.869Z,22.68
2018-07-06T07:44:00.283Z,22.62
2018-07-06T07:47:02.417Z,22.58
2018-07-06T07:50:04.432Z,22.68
2018-07-06T07:53:18.832Z,22.48
2018-07-06T07:56:21.223Z,22.56
2018-07-06T07:59:23.338Z,22.71
2018-07-06T08:02:25.443Z,22.90
2018-07-06T08:05:27.595Z,22.92
2018-07-06T08:08:29.816Z,22.88
2018-07-06T08:11:35.445Z,22.71
2018-07-06T08:14:35.360Z,22.89
2018-07-06T08:17:37.487Z,22.93
2018-07-06T08:20:39.620Z,23.03
2018-07-06T08:23:41.665Z,23.18
2018-07-06T08:26:43.780Z,23.09
2018-07-06T08:29:45.919Z,23.19
2018-07-06T08:32:47.936Z,23.44
2018-07-06T08:36:01.485Z,23.59
2018-07-06T08:39:04.613Z,23.50
2018-07-06T08:42:06.683Z,23.32
2018-07-06T08:45:09.303Z,23.09
2018-07-06T08:48:11.439Z,22.95
2018-07-06T08:51:13.492Z,23.15
2018-07-06T08:54:15.494Z,23.52
2018-07-06T08:57:18.081Z,23.72
2018-07-06T09:00:20.239Z,23.92
2018-07-06T09:03:22.229Z,23.79
2018-07-06T09:06:24.404Z,24.02
2018-07-06T09:09:26.718Z,24.20
2018-07-06T09:12:28.801Z,24.21
2018-07-06T09:15:30.897Z,24.32
2018-07-06T09:18:33.027Z,24.51
2018-07-06T09:21:36.836Z,24.63
2018-07-06T09:24:39.101Z,24.95
2018-07-06T09:27:41.193Z,25.08
2018-07-06T09:30:43.483Z,24.73
2018-07-06T09:33:45.342Z,24.49
2018-07-06T09:36:47.523Z,24.26
2018-07-06T09:39:50.231Z,24.22
2018-07-06T09:42:52.157Z,24.55
2018-07-06T09:45:54.336Z,24.92
2018-07-06T09:48:56.394Z,24.61
2018-07-06T09:52:00.580Z,24.36
2018-07-06T09:55:02.793Z,24.65
2018-07-06T09:58:06.200Z,25.00
2018-07-06T10:01:08.208Z,25.56
2018-07-06T10:04:10.342Z,25.44
2018-07-06T10:07:13.440Z,25.13
2018-07-06T10:10:15.617Z,25.32
2018-07-06T10:13:17.831Z,25.36
2018-07-06T10:16:20.298Z,25.56
2018-07-06T10:19:22.417Z,25.50
2018-07-06T10:22:24.493Z,25.54
2018-07-06T10:25:26.609Z,25.48
2018-07-06T10:30:50.516Z,25.29
2018-07-06T10:33:52.505Z,25.71
2018-07-06T10:36:54.602Z,25.81
2018-07-06T10:39:56.905Z,25.59
2018-07-06T10:42:58.847Z,25.91
2018-07-06T10:46:00.927Z,26.34
2018-07-06T10:49:03.410Z,26.31
2018-07-06T10:52:06.825Z,26.04
2018-07-06T10:55:08.842Z,26.07
2018-07-06T10:58:11.088Z,26.03
2018-07-06T11:01:13.201Z,25.84
2018-07-06T11:04:15.363Z,25.75
2018-07-06T11:07:17.418Z,25.76
2018-07-06T11:10:19.577Z,25.98
2018-07-06T11:13:21.592Z,26.47
2018-07-06T11:16:23.656Z,26.68
2018-07-06T11:19:25.679Z,26.56
2018-07-06T11:22:27.752Z,26.47
2018-07-06T11:25:29.850Z,26.65
2018-07-06T11:28:31.912Z,26.99
2018-07-06T11:31:35.468Z,27.36
2018-07-06T11:34:37.607Z,27.33
2018-07-06T11:37:41.679Z,26.71
2018-07-06T11:40:43.845Z,27.04
2018-07-06T11:43:45.850Z,27.26
2018-07-06T11:46:47.911Z,27.37
2018-07-06T11:49:50.123Z,27.45
2018-07-06T11:52:52.166Z,27.33
2018-07-06T11:55:54.370Z,27.42
2018-07-06T11:58:56.576Z,27.49
2018-07-06T12:01:58.764Z,27.23
2018-07-06T12:05:00.841Z,27.13
2018-07-06T12:08:02.817Z,27.38
2018-07-06T12:11:06.153Z,27.78
2018-07-06T12:14:08.322Z,27.73
2018-07-06T12:17:10.444Z,27.49
2018-07-06T12:20:12.518Z,27.17
2018-07-06T12:23:14.647Z,27.53
2018-07-06T12:26:16.681Z,27.73
2018-07-06T12:29:18.745Z,27.46
2018-07-06T12:32:20.943Z,27.90
2018-07-06T12:35:23.096Z,28.16
2018-07-06T12:38:25.137Z,27.91
2018-07-06T12:41:27.244Z,27.97
2018-07-06T12:44:29.287Z,28.16
2018-07-06T12:47:31.921Z,28.32
2018-07-06T12:50:34.031Z,28.19
2018-07-06T12:53:36.028Z,28.34
2018-07-06T12:56:38.902Z,28.70
2018-07-06T12:59:41.064Z,28.61
2018-07-06T13:02:44.451Z,28.59
2018-07-06T13:05:46.582Z,28.94
2018-07-06T13:08:48.660Z,28.96
2018-07-06T13:11:50.961Z,28.49
2018-07-06T13:14:53.197Z,28.68
2018-07-06T13:17:55.380Z,28.70
2018-07-06T13:20:57.534Z,28.23
2018-07-06T13:23:59.622Z,28.09
2018-07-06T13:27:01.723Z,28.23
2018-07-06T13:30:03.927Z,28.24
2018-07-06T13:33:05.970Z,28.34
2018-07-06T13:36:09.549Z,28.32
2018-07-06T13:39:12.914Z,28.21
2018-07-06T13:42:14.928Z,28.04
2018-07-06T13:45:17.118Z,27.99
2018-07-06T13:48:20.395Z,27.77
2018-07-06T13:51:22.483Z,27.79
2018-07-06T13:54:24.752Z,27.78
2018-07-06T14:00:28.367Z,27.69
2018-07-06T14:03:30.446Z,27.58
2018-07-06T14:06:32.546Z,27.44
2018-07-06T14:09:34.877Z,27.47
2018-07-06T14:12:37.049Z,27.59
2018-07-06T14:15:39.794Z,27.59
2018-07-06T14:18:41.919Z,27.63
2018-07-06T14:21:43.978Z,27.67
2018-07-06T14:24:46.147Z,27.73
2018-07-06T14:30:50.618Z,27.57
2018-07-06T14:33:53.782Z,27.56
2018-07-06T14:36:56.027Z,27.20
2018-07-06T14:39:58.165Z,26.63
2018-07-06T14:43:00.425Z,26.23
2018-07-06T14:46:02.571Z,25.76
2018-07-06T14:49:05.095Z,25.43
2018-07-06T14:52:07.312Z,25.12
2018-07-06T14:55:10.069Z,24.70
2018-07-06T14:58:12.270Z,24.59
2018-07-06T15:01:14.341Z,24.55
2018-07-06T15:04:16.740Z,24.38
2018-07-06T15:07:18.999Z,24.42
2018-07-06T15:10:21.068Z,24.43
2018-07-06T15:13:23.266Z,24.52
2018-07-06T15:16:25.620Z,24.78
2018-07-06T15:19:27.748Z,24.98
2018-07-06T15:22:29.804Z,25.13
2018-07-06T15:25:31.920Z,25.52
2018-07-06T15:28:34.008Z,25.99
2018-07-06T15:31:36.556Z,26.45
2018-07-06T15:34:39.853Z,26.59
2018-07-06T15:37:42.365Z,26.77
2018-07-06T15:40:44.419Z,26.91
2018-07-06T15:43:46.933Z,27.22
2018-07-06T15:46:49.429Z,27.37
2018-07-06T15:49:52.010Z,27.32
2018-07-06T15:52:54.501Z,27.21
2018-07-06T15:55:56.985Z,27.10
2018-07-06T15:58:59.541Z,26.90
2018-07-06T16:02:02.155Z,26.78
2018-07-06T16:05:04.846Z,26.74
2018-07-06T16:08:07.943Z,26.93
2018-07-06T16:11:10.096Z,27.28
2018-07-06T16:14:12.708Z,27.72
2018-07-06T16:17:15.159Z,27.99
2018-07-06T16:20:17.627Z,28.15
2018-07-06T16:23:19.624Z,28.29
2018-07-06T16:26:22.165Z,28.28
2018-07-06T16:29:24.703Z,28.22
2018-07-06T16:32:27.148Z,28.17
2018-07-06T16:35:29.700Z,28.26
2018-07-06T16:38:32.009Z,28.57
2018-07-06T16:41:34.380Z,28.94
2018-07-06T16:44:36.714Z,28.91
2018-07-06T16:47:39.019Z,28.95
2018-07-06T16:50:42.185Z,29.03
2018-07-06T16:53:44.387Z,28.99
2018-07-06T16:56:46.611Z,28.95
2018-07-06T16:59:49.043Z,28.83
2018-07-06T17:02:51.135Z,28.68
2018-07-06T17:05:53.559Z,28.67
2018-07-06T17:08:55.848Z,28.55
2018-07-06T17:11:58.043Z,28.42
2018-07-06T17:15:00.236Z,28.53
2018-07-06T17:18:03.340Z,28.71
2018-07-06T17:21:05.695Z,28.72
2018-07-06T17:24:07.900Z,28.64
2018-07-06T17:27:11.015Z,28.47
2018-07-06T17:30:13.143Z,28.40
2018-07-06T17:33:15.236Z,28.23
2018-07-06T17:36:17.279Z,28.16
2018-07-06T17:39:19.246Z,28.10
2018-07-06T17:42:21.399Z,28.07
2018-07-06T17:45:23.535Z,27.95
2018-07-06T17:48:25.582Z,27.95
2018-07-06T17:51:27.779Z,27.85
2018-07-06T17:54:29.928Z,27.81
2018-07-06T17:57:32.007Z,27.72
2018-07-06T18:00:34.435Z,27.67
2018-07-06T18:03:36.611Z,27.63
2018-07-06T18:06:38.676Z,27.51
2018-07-06T18:09:40.854Z,27.46
2018-07-06T18:12:42.982Z,27.32
2018-07-06T18:15:45.331Z,27.16
2018-07-06T18:18:47.602Z,27.07
2018-07-06T18:21:49.814Z,26.98
2018-07-06T18:24:51.795Z,26.91
2018-07-06T18:27:53.920Z,26.87
2018-07-06T18:30:56.071Z,26.79
2018-07-06T18:33:58.161Z,26.68
2018-07-06T18:37:02.219Z,26.58
2018-07-06T18:40:04.572Z,26.48
2018-07-06T18:43:06.770Z,26.41
2018-07-06T18:46:08.779Z,26.37
2018-07-06T18:49:10.815Z,26.28
2018-07-06T18:52:12.890Z,26.22
2018-07-06T18:55:15.111Z,26.18
2018-07-06T18:58:17.176Z,26.14
2018-07-06T19:01:19.263Z,26.07
2018-07-06T19:04:21.319Z,25.99
2018-07-06T19:07:23.488Z,25.95
2018-07-06T19:10:25.907Z,25.86
2018-07-06T19:13:28.028Z,25.77
2018-07-06T19:16:30.447Z,25.71
2018-07-06T19:19:33.808Z,25.61
2018-07-06T19:22:35.874Z,25.53
2018-07-06T19:25:38.085Z,25.47
2018-07-06T19:28:41.275Z,25.40
2018-07-06T19:31:43.317Z,25.36
2018-07-06T19:34:45.584Z,25.28
2018-07-06T19:37:47.839Z,25.21
2018-07-06T19:40:50.927Z,25.11
2018-07-06T19:43:53.158Z,25.03
2018-07-06T19:46:55.291Z,24.98
2018-07-06T19:49:57.395Z,24.89
2018-07-06T19:52:59.525Z,24.86
2018-07-06T19:56:01.764Z,24.84
2018-07-06T19:59:05.074Z,24.76
2018-07-06T20:02:07.161Z,24.70
2018-07-06T20:05:09.496Z,24.63
2018-07-06T20:08:11.588Z,24.61
2018-07-06T20:11:13.717Z,24.58
2018-07-06T20:14:15.735Z,24.54
2018-07-06T20:17:17.840Z,24.55
2018-07-06T20:20:19.895Z,24.52
2018-07-06T20:23:23.176Z,24.43
2018-07-06T20:26:25.306Z,24.37
2018-07-06T20:29:27.420Z,24.27
2018-07-06T20:32:29.580Z,24.25
2018-07-06T20:35:31.642Z,24.20
2018-07-06T20:38:34.944Z,24.18
2018-07-06T20:41:37.099Z,24.15
2018-07-06T20:44:39.190Z,24.11
2018-07-06T20:47:41.280Z,23.96
2018-07-06T20:50:43.494Z,23.89
2018-07-06T20:53:45.593Z,23.85
2018-07-06T20:56:47.624Z,23.81
2018-07-06T20:59:49.667Z,23.76
2018-07-06T21:02:51.819Z,23.67
2018-07-06T21:05:53.808Z,23.59
2018-07-06T21:08:55.933Z,23.50
2018-07-06T21:11:57.999Z,23.46
2018-07-06T21:15:00.150Z,23.42
2018-07-06T21:18:02.233Z,23.30
2018-07-06T21:21:04.465Z,23.25
2018-07-06T21:24:06.599Z,23.18
2018-07-06T21:27:08.660Z,23.14
2018-07-06T21:30:10.809Z,23.07
2018-07-06T21:33:12.792Z,23.01
2018-07-06T21:36:14.793Z,22.89
2018-07-06T21:39:16.956Z,22.76
2018-07-06T21:42:19.019Z,22.68
2018-07-06T21:45:21.299Z,22.66
2018-07-06T21:48:23.484Z,22.52
2018-07-06T21:51:25.674Z,22.37
2018-07-06T21:54:27.697Z,22.23
2018-07-06T21:57:29.860Z,22.18
2018-07-06T22:00:35.467Z,22.21
2018-07-06T22:03:37.475Z,22.24
2018-07-06T22:06:39.441Z,22.26
2018-07-06T22:09:41.585Z,22.23
2018-07-06T22:12:43.688Z,22.20
2018-07-06T22:15:46.633Z,22.17
2018-07-06T22:18:48.907Z,22.15
2018-07-06T22:21:50.909Z,22.15
2018-07-06T22:24:52.980Z,22.09
2018-07-06T22:27:55.052Z,22.06
2018-07-06T22:30:57.226Z,22.06
2018-07-06T22:33:59.290Z,22.07
2018-07-06T22:37:03.568Z,22.08
2018-07-06T22:40:05.595Z,22.10
2018-07-06T22:43:07.643Z,22.07
2018-07-06T22:46:09.745Z,22.06
2018-07-06T22:49:11.908Z,22.03
2018-07-06T22:52:13.959Z,21.99
2018-07-06T22:55:16.032Z,21.83
2018-07-06T22:58:19.131Z,21.73
2018-07-06T23:01:21.219Z,21.65
2018-07-06T23:04:23.344Z,21.61
2018-07-06T23:07:25.516Z,21.49
2018-07-06T23:10:27.650Z,21.42
2018-07-06T23:13:29.843Z,21.34
2018-07-06T23:16:31.948Z,21.33
2018-07-06T23:19:35.260Z,21.29
2018-07-06T23:23:01.016Z,21.26
2018-07-06T23:26:03.005Z,21.24
2018-07-06T23:29:05.164Z,21.20
2018-07-06T23:32:07.281Z,21.15
2018-07-06T23:35:09.937Z,21.01
2018-07-06T23:38:12.077Z,20.92
2018-07-06T23:41:15.021Z,20.94
2018-07-06T23:44:17.046Z,20.93
2018-07-06T23:47:19.049Z,20.96
2018-07-06T23:50:21.698Z,21.02
2018-07-06T23:53:24.035Z,20.99
2018-07-06T23:56:26.042Z,20.91
2018-07-06T23:59:28.121Z,20.82
